Time;durP1;ratioP1;P1;durP2;ratioP2;P2;SDS_P1;SDS_P2;PMS_P1;PMS_P2;Temp;Humidity;BMP_temperature;BMP_pressure;BME280_temperature;BME280_humidity;BME280_pressure;Samples;Min_cycle;Max_cycle;Signal;HPM_P1;HPM_P2
2021/10/04 00:01:54;;;;;;;6.85;2.85;;;;;;;;;;5031985;28;20258;-75
2021/10/04 00:04:19;;;;;;;7.25;2.60;;;;;;;;;;5045587;28;20196;-74
2021/10/04 00:06:45;;;;;;;8.27;2.90;;;;;;;;;;5033863;28;20544;-76
2021/10/04 00:09:10;;;;;;;7.05;3.00;;;;;;;;;;5039495;28;20704;-75
2021/10/04 00:11:35;;;;;;;5.70;2.50;;;;;;;;;;5030738;28;20200;-74
2021/10/04 00:14:01;;;;;;;4.40;2.83;;;;;;;;;;5045636;28;20177;-75
2021/10/04 00:16:26;;;;;;;6.75;2.88;;;;;;;;;;5030889;28;20358;-77
2021/10/04 00:18:52;;;;;;;7.15;2.35;;;;;;;;;;5043440;28;20177;-75
2021/10/04 00:21:17;;;;;;;6.68;2.40;;;;;;;;;;5039281;28;20697;-77
2021/10/04 00:23:42;;;;;;;5.68;2.35;;;;;;;;;;5032429;28;20554;-73
2021/10/04 00:26:08;;;;;;;5.70;2.60;;;;;;;;;;5039400;28;20212;-73
2021/10/04 00:28:33;;;;;;;7.53;2.65;;;;;;;;;;5031163;28;20680;-73
2021/10/04 00:30:59;;;;;;;11.30;3.35;;;;;;;;;;5041382;28;20188;-77
2021/10/04 00:33:24;;;;;;;8.10;3.10;;;;;;;;;;5026430;28;20204;-76
2021/10/04 00:35:50;;;;;;;6.97;2.70;;;;;;;;;;5037604;28;20208;-75
2021/10/04 00:38:15;;;;;;;9.00;2.55;;;;;;;;;;5035355;28;20188;-77
2021/10/04 00:40:40;;;;;;;9.93;2.40;;;;;;;;;;5041704;28;20188;-74
2021/10/04 00:43:06;;;;;;;8.27;2.60;;;;;;;;;;5036352;28;20271;-76
2021/10/04 00:45:32;;;;;;;4.47;2.25;;;;;;;;;;5038155;28;20192;-74
2021/10/04 00:47:58;;;;;;;4.05;2.42;;;;;;;;;;5032327;28;20532;-77
2021/10/04 00:50:25;;;;;;;5.93;2.17;;;;;;;;;;5041146;28;20184;-73
2021/10/04 00:52:51;;;;;;;8.40;2.40;;;;;;;;;;5043062;28;20181;-75
2021/10/04 00:55:18;;;;;;;8.32;2.22;;;;;;;;;;5038027;28;20186;-73
2021/10/04 00:57:43;;;;;;;5.78;2.40;;;;;;;;;;5038978;28;20209;-74
2021/10/04 01:00:15;;;;;;;3.67;1.73;;;;;;;;;;5029045;28;20186;-75
2021/10/04 01:02:41;;;;;;;4.05;1.88;;;;;;;;;;5040007;28;20201;-78
2021/10/04 01:05:08;;;;;;;4.65;2.03;;;;;;;;;;5033905;28;20182;-73
2021/10/04 01:07:33;;;;;;;4.40;1.50;;;;;;;;;;5043753;28;20248;-75
2021/10/04 01:09:59;;;;;;;8.75;1.90;;;;;;;;;;5042027;28;20625;-75
2021/10/04 01:12:25;;;;;;;6.05;1.90;;;;;;;;;;5042588;28;20195;-76
2021/10/04 01:14:51;;;;;;;3.17;1.45;;;;;;;;;;5041078;28;20190;-74
2021/10/04 01:17:16;;;;;;;3.97;1.40;;;;;;;;;;5041888;28;20259;-77
2021/10/04 01:19:42;;;;;;;3.40;1.60;;;;;;;;;;5040811;28;20185;-76
2021/10/04 01:22:09;;;;;;;5.20;1.70;;;;;;;;;;5046652;28;20276;-73
2021/10/04 01:24:35;;;;;;;9.93;1.88;;;;;;;;;;5045212;28;20192;-73
2021/10/04 01:27:00;;;;;;;10.60;2.15;;;;;;;;;;5033405;28;20271;-75
2021/10/04 01:29:26;;;;;;;5.70;1.70;;;;;;;;;;5042370;28;20190;-76
2021/10/04 01:31:51;;;;;;;6.57;1.60;;;;;;;;;;5039063;28;20204;-77
2021/10/04 01:34:17;;;;;;;5.32;1.67;;;;;;;;;;5038507;28;20190;-75
2021/10/04 01:36:42;;;;;;;4.55;1.65;;;;;;;;;;5032439;28;20679;-73
2021/10/04 01:39:08;;;;;;;5.83;1.60;;;;;;;;;;5045361;28;20696;-73
2021/10/04 01:41:33;;;;;;;4.20;1.52;;;;;;;;;;5035310;28;20235;-75
2021/10/04 01:43:58;;;;;;;6.55;1.63;;;;;;;;;;5038787;28;20197;-74
2021/10/04 01:46:24;;;;;;;3.65;1.70;;;;;;;;;;5034534;28;20205;-75
2021/10/04 01:48:50;;;;;;;8.88;1.50;;;;;;;;;;5045062;28;20206;-73
2021/10/04 01:51:15;;;;;;;4.65;2.28;;;;;;;;;;5036264;28;20185;-74
2021/10/04 01:53:41;;;;;;;4.72;1.75;;;;;;;;;;5042382;28;20204;-74
2021/10/04 01:56:07;;;;;;;6.88;2.00;;;;;;;;;;5044533;28;20185;-73
2021/10/04 01:58:33;;;;;;;4.25;1.80;;;;;;;;;;5036337;28;20283;-75
2021/10/04 02:01:00;;;;;;;6.60;2.15;;;;;;;;;;5047547;28;20560;-73
2021/10/04 02:03:27;;;;;;;3.42;1.55;;;;;;;;;;5032727;28;20189;-73
2021/10/04 02:05:53;;;;;;;6.38;1.60;;;;;;;;;;5044799;28;20625;-76
2021/10/04 02:08:18;;;;;;;2.75;1.85;;;;;;;;;;5034918;28;20225;-73
2021/10/04 02:10:44;;;;;;;4.75;1.92;;;;;;;;;;5038739;28;20178;-73
2021/10/04 02:13:11;;;;;;;5.28;2.03;;;;;;;;;;5033662;28;20201;-73
2021/10/04 02:15:38;;;;;;;5.03;2.17;;;;;;;;;;5046150;28;20192;-73
2021/10/04 02:18:04;;;;;;;8.88;2.00;;;;;;;;;;5033906;28;20246;-73
2021/10/04 02:20:32;;;;;;;3.60;2.08;;;;;;;;;;5049173;28;20259;-76
2021/10/04 02:23:05;;;;;;;4.70;2.08;;;;;;;;;;5034931;28;20187;-73
2021/10/04 02:25:31;;;;;;;6.45;2.50;;;;;;;;;;5042065;28;20512;-73
2021/10/04 02:27:56;;;;;;;8.02;2.38;;;;;;;;;;5032261;28;20273;-74
2021/10/04 02:30:23;;;;;;;5.10;2.20;;;;;;;;;;5046813;28;20178;-73
2021/10/04 02:32:49;;;;;;;6.18;2.17;;;;;;;;;;5043744;28;20197;-73
2021/10/04 02:35:15;;;;;;;6.25;2.00;;;;;;;;;;5037026;28;20213;-73
2021/10/04 02:37:40;;;;;;;5.28;1.95;;;;;;;;;;5038790;28;20178;-74
2021/10/04 02:40:08;;;;;;;7.35;2.03;;;;;;;;;;5033116;28;20638;-74
2021/10/04 02:42:34;;;;;;;10.45;2.22;;;;;;;;;;5041253;28;20221;-73
2021/10/04 02:44:59;;;;;;;4.15;1.92;;;;;;;;;;5032829;28;20189;-73
2021/10/04 02:47:25;;;;;;;5.13;2.22;;;;;;;;;;5044368;28;20308;-73
2021/10/04 02:49:50;;;;;;;6.45;2.25;;;;;;;;;;5028162;28;20201;-73
2021/10/04 02:52:17;;;;;;;7.53;2.58;;;;;;;;;;5045181;28;20189;-73
2021/10/04 02:54:43;;;;;;;6.50;2.60;;;;;;;;;;5038695;28;20273;-73
2021/10/04 02:57:08;;;;;;;5.88;2.53;;;;;;;;;;5042184;28;20202;-72
2021/10/04 02:59:34;;;;;;;5.38;2.15;;;;;;;;;;5031040;28;20195;-73
2021/10/04 03:01:59;;;;;;;6.43;2.70;;;;;;;;;;5038817;28;20256;-72
2021/10/04 03:04:24;;;;;;;6.43;2.10;;;;;;;;;;5039190;28;20224;-73
2021/10/04 03:06:50;;;;;;;6.97;1.85;;;;;;;;;;5027939;28;20189;-72
2021/10/04 03:09:16;;;;;;;2.20;1.73;;;;;;;;;;5037867;28;20308;-72
2021/10/04 03:11:41;;;;;;;5.30;1.90;;;;;;;;;;5037190;28;20205;-72
2021/10/04 03:14:07;;;;;;;5.18;1.95;;;;;;;;;;5043449;28;20547;-73
2021/10/04 03:16:32;;;;;;;7.22;1.95;;;;;;;;;;5035656;28;20189;-74
2021/10/04 03:18:57;;;;;;;3.83;1.73;;;;;;;;;;5026460;28;20192;-73
2021/10/04 03:21:23;;;;;;;6.47;2.00;;;;;;;;;;5026327;28;20225;-73
2021/10/04 03:23:48;;;;;;;5.28;1.95;;;;;;;;;;5039632;28;20633;-72
2021/10/04 03:26:14;;;;;;;6.65;1.73;;;;;;;;;;5029511;28;20487;-72
2021/10/04 03:28:39;;;;;;;5.80;1.85;;;;;;;;;;5042157;28;20536;-73
2021/10/04 03:31:05;;;;;;;3.65;1.55;;;;;;;;;;5031663;28;20185;-72
2021/10/04 03:33:30;;;;;;;5.97;2.50;;;;;;;;;;5041864;28;20225;-73
2021/10/04 03:35:55;;;;;;;8.15;2.25;;;;;;;;;;5041057;28;20181;-72
2021/10/04 03:38:21;;;;;;;7.30;2.10;;;;;;;;;;5032670;28;20189;-72
2021/10/04 03:40:46;;;;;;;9.10;2.25;;;;;;;;;;5038126;28;20237;-72
2021/10/04 03:43:12;;;;;;;5.78;2.22;;;;;;;;;;5033397;28;20193;-72
2021/10/04 03:45:37;;;;;;;7.07;2.40;;;;;;;;;;5038030;28;20550;-72
2021/10/04 03:48:03;;;;;;;8.35;2.13;;;;;;;;;;5033117;28;20205;-73
2021/10/04 03:50:28;;;;;;;5.50;2.53;;;;;;;;;;5042283;28;20185;-72
2021/10/04 03:52:53;;;;;;;7.60;2.67;;;;;;;;;;5033679;28;20196;-72
2021/10/04 03:55:19;;;;;;;6.90;2.50;;;;;;;;;;5038261;28;20692;-72
2021/10/04 03:57:45;;;;;;;9.95;2.50;;;;;;;;;;5032461;28;20220;-72
2021/10/04 04:00:14;;;;;;;8.85;2.78;;;;;;;;;;5044392;28;20177;-72
2021/10/04 04:02:40;;;;;;;4.07;2.33;;;;;;;;;;5034686;28;20296;-73
2021/10/04 04:05:06;;;;;;;6.18;2.97;;;;;;;;;;5042854;28;20320;-72
2021/10/04 04:07:31;;;;;;;7.13;2.53;;;;;;;;;;5038926;28;20213;-72
2021/10/04 04:09:57;;;;;;;7.93;2.45;;;;;;;;;;5031499;28;20222;-72
2021/10/04 04:12:22;;;;;;;4.90;2.72;;;;;;;;;;5041542;28;20197;-72
2021/10/04 04:14:48;;;;;;;4.93;3.03;;;;;;;;;;5030455;28;20548;-72
2021/10/04 04:17:13;;;;;;;6.03;2.47;;;;;;;;;;5043995;28;20189;-73
2021/10/04 04:19:38;;;;;;;11.27;4.22;;;;;;;;;;5030421;28;20185;-72
2021/10/04 04:22:04;;;;;;;8.50;2.67;;;;;;;;;;5041370;28;20299;-73
2021/10/04 04:24:30;;;;;;;5.32;2.70;;;;;;;;;;5032627;28;20181;-73
2021/10/04 04:26:56;;;;;;;8.48;2.72;;;;;;;;;;5037021;28;20192;-73
2021/10/04 04:29:22;;;;;;;7.70;2.88;;;;;;;;;;5034560;28;20213;-73
2021/10/04 04:31:49;;;;;;;5.90;2.72;;;;;;;;;;5039887;28;20223;-73
2021/10/04 04:34:14;;;;;;;5.53;2.70;;;;;;;;;;5027639;28;20194;-72
2021/10/04 04:36:40;;;;;;;6.13;2.38;;;;;;;;;;5037139;28;20235;-71
2021/10/04 04:39:05;;;;;;;8.25;2.97;;;;;;;;;;5040081;28;20231;-72
2021/10/04 04:41:30;;;;;;;9.95;2.72;;;;;;;;;;5039039;28;20184;-71
2021/10/04 04:43:56;;;;;;;7.50;2.47;;;;;;;;;;5043325;28;20189;-72
2021/10/04 04:46:21;;;;;;;7.60;2.70;;;;;;;;;;5029281;28;20173;-73
2021/10/04 04:48:47;;;;;;;7.65;2.80;;;;;;;;;;5044265;28;20201;-72
2021/10/04 04:51:12;;;;;;;5.07;2.40;;;;;;;;;;5042597;28;20281;-72
2021/10/04 04:53:38;;;;;;;8.27;2.45;;;;;;;;;;5043246;28;20194;-72
2021/10/04 04:56:03;;;;;;;6.72;2.15;;;;;;;;;;5035475;28;20688;-73
2021/10/04 04:58:29;;;;;;;5.32;2.15;;;;;;;;;;5046108;28;20281;-73
2021/10/04 05:00:54;;;;;;;3.85;2.15;;;;;;;;;;5033845;28;20292;-75
2021/10/04 05:03:19;;;;;;;7.07;2.47;;;;;;;;;;5042177;28;20217;-73
2021/10/04 05:05:45;;;;;;;3.63;2.40;;;;;;;;;;5038255;28;20197;-72
2021/10/04 05:08:11;;;;;;;5.10;2.22;;;;;;;;;;5035166;28;20525;-73
2021/10/04 05:10:36;;;;;;;10.80;2.47;;;;;;;;;;5040204;28;20189;-72
2021/10/04 05:13:02;;;;;;;6.13;2.90;;;;;;;;;;5034053;28;20214;-73
2021/10/04 05:15:30;;;;;;;7.47;2.13;;;;;;;;;;5043846;28;20197;-72
2021/10/04 05:17:55;;;;;;;5.85;2.05;;;;;;;;;;5037567;28;20582;-72
2021/10/04 05:20:20;;;;;;;6.80;1.92;;;;;;;;;;5041854;28;20226;-72
2021/10/04 05:22:46;;;;;;;6.45;2.75;;;;;;;;;;5038391;28;20221;-72
2021/10/04 05:25:12;;;;;;;5.03;2.25;;;;;;;;;;5045885;28;20181;-72
2021/10/04 05:27:38;;;;;;;4.88;2.53;;;;;;;;;;5039498;28;20205;-72
2021/10/04 05:30:06;;;;;;;7.90;2.60;;;;;;;;;;5042108;28;20557;-73
2021/10/04 05:32:31;;;;;;;4.78;1.83;;;;;;;;;;5035538;28;20759;-73
2021/10/04 05:34:58;;;;;;;6.57;2.30;;;;;;;;;;5043273;28;20186;-76
2021/10/04 05:37:23;;;;;;;5.22;2.30;;;;;;;;;;5031312;28;20313;-74
2021/10/04 05:39:49;;;;;;;6.28;2.67;;;;;;;;;;5042249;28;20281;-74
2021/10/04 05:42:14;;;;;;;5.38;2.35;;;;;;;;;;5043599;28;20189;-74
2021/10/04 05:44:39;;;;;;;8.85;2.45;;;;;;;;;;5034838;28;20595;-74
2021/10/04 05:47:06;;;;;;;7.78;2.50;;;;;;;;;;5039310;28;20182;-73
2021/10/04 05:49:31;;;;;;;7.32;2.88;;;;;;;;;;5033538;28;20205;-73
2021/10/04 05:51:56;;;;;;;7.60;2.28;;;;;;;;;;5041690;28;20185;-75
2021/10/04 05:54:23;;;;;;;4.22;2.30;;;;;;;;;;5031395;28;20227;-74
2021/10/04 05:56:49;;;;;;;5.43;2.35;;;;;;;;;;5044765;28;20209;-73
2021/10/04 05:59:14;;;;;;;10.68;2.63;;;;;;;;;;5036072;28;20208;-73
2021/10/04 06:01:39;;;;;;;4.80;2.60;;;;;;;;;;5045458;28;20276;-74
2021/10/04 06:04:05;;;;;;;4.20;2.28;;;;;;;;;;5031849;28;20256;-74
2021/10/04 06:06:30;;;;;;;6.30;2.88;;;;;;;;;;5037940;28;20275;-73
2021/10/04 06:08:56;;;;;;;6.35;2.60;;;;;;;;;;5036830;28;20655;-73
2021/10/04 06:11:23;;;;;;;4.18;2.30;;;;;;;;;;5042748;28;20239;-73
2021/10/04 06:13:48;;;;;;;6.38;2.38;;;;;;;;;;5039232;28;20267;-73
2021/10/04 06:16:14;;;;;;;6.60;2.88;;;;;;;;;;5038859;28;20272;-75
2021/10/04 06:18:39;;;;;;;6.10;2.90;;;;;;;;;;5035315;28;20189;-72
2021/10/04 06:21:07;;;;;;;9.45;3.13;;;;;;;;;;5028866;28;20193;-72
2021/10/04 06:23:33;;;;;;;9.35;2.70;;;;;;;;;;5035889;28;20227;-74
2021/10/04 06:25:58;;;;;;;8.40;2.80;;;;;;;;;;5037256;28;20213;-72
2021/10/04 06:28:24;;;;;;;4.43;2.13;;;;;;;;;;5041279;28;20688;-74
2021/10/04 06:30:49;;;;;;;4.63;2.40;;;;;;;;;;5036798;28;20196;-73
2021/10/04 06:33:15;;;;;;;7.38;2.40;;;;;;;;;;5043015;28;20638;-73
2021/10/04 06:35:40;;;;;;;2.28;1.98;;;;;;;;;;5035618;28;20192;-73
2021/10/04 06:38:05;;;;;;;5.95;2.20;;;;;;;;;;5030752;28;20202;-73
2021/10/04 06:40:31;;;;;;;4.32;2.05;;;;;;;;;;5027496;28;20296;-74
2021/10/04 06:42:56;;;;;;;5.97;2.17;;;;;;;;;;5036555;28;20181;-73
2021/10/04 06:45:23;;;;;;;8.13;2.20;;;;;;;;;;5037730;28;20185;-72
2021/10/04 06:47:48;;;;;;;7.72;2.20;;;;;;;;;;5034711;28;20282;-73
2021/10/04 06:50:14;;;;;;;6.93;2.20;;;;;;;;;;5037272;28;20653;-74
2021/10/04 06:52:40;;;;;;;4.72;2.03;;;;;;;;;;5031744;28;20217;-72
2021/10/04 06:55:07;;;;;;;8.30;2.38;;;;;;;;;;5038344;28;20592;-74
2021/10/04 06:57:32;;;;;;;4.38;2.25;;;;;;;;;;5032101;28;20205;-74
2021/10/04 06:59:58;;;;;;;5.93;2.17;;;;;;;;;;5043019;28;20560;-73
2021/10/04 07:02:23;;;;;;;7.70;2.40;;;;;;;;;;5032730;28;20216;-74
2021/10/04 07:04:49;;;;;;;2.97;2.10;;;;;;;;;;5039410;28;20194;-74
2021/10/04 07:07:14;;;;;;;6.07;2.40;;;;;;;;;;5030629;28;20242;-74
2021/10/04 07:09:41;;;;;;;5.35;2.22;;;;;;;;;;5035815;28;20226;-77
2021/10/04 07:12:07;;;;;;;6.50;2.25;;;;;;;;;;5045207;28;20178;-73
2021/10/04 07:14:32;;;;;;;5.65;1.98;;;;;;;;;;5027456;28;20181;-75
2021/10/04 07:16:57;;;;;;;8.70;2.13;;;;;;;;;;5043606;28;20211;-72
2021/10/04 07:19:23;;;;;;;6.65;1.90;;;;;;;;;;5030885;28;20538;-74
2021/10/04 07:21:51;;;;;;;4.97;1.92;;;;;;;;;;5045121;28;20601;-73
2021/10/04 07:24:17;;;;;;;7.03;1.92;;;;;;;;;;5029157;28;20461;-73
2021/10/04 07:26:43;;;;;;;6.18;2.03;;;;;;;;;;5038233;28;20242;-73
2021/10/04 07:29:08;;;;;;;4.47;1.92;;;;;;;;;;5028457;28;20205;-75
2021/10/04 07:31:33;;;;;;;9.70;2.22;;;;;;;;;;5039738;28;20730;-75
2021/10/04 07:34:00;;;;;;;5.68;2.40;;;;;;;;;;5032473;28;20247;-73
2021/10/04 07:36:25;;;;;;;3.58;1.60;;;;;;;;;;5038916;28;20189;-73
2021/10/04 07:38:50;;;;;;;3.72;1.85;;;;;;;;;;5034401;28;21056;-73
2021/10/04 07:41:16;;;;;;;11.13;2.15;;;;;;;;;;5041212;28;20181;-74
2021/10/04 07:43:41;;;;;;;3.38;1.95;;;;;;;;;;5033865;28;20182;-73
2021/10/04 07:46:07;;;;;;;3.55;1.70;;;;;;;;;;5039275;28;21669;-72
2021/10/04 07:48:33;;;;;;;5.70;1.67;;;;;;;;;;5045499;28;20684;-73
2021/10/04 07:50:59;;;;;;;3.88;1.70;;;;;;;;;;5035727;28;20530;-72
2021/10/04 07:53:24;;;;;;;4.32;1.63;;;;;;;;;;5043588;28;20643;-72
2021/10/04 07:55:50;;;;;;;5.82;1.70;;;;;;;;;;5025332;28;20223;-73
2021/10/04 07:58:15;;;;;;;5.53;1.40;;;;;;;;;;5042076;28;20197;-74
2021/10/04 08:00:40;;;;;;;4.85;1.50;;;;;;;;;;5034938;28;20637;-74
2021/10/04 08:03:06;;;;;;;5.25;1.27;;;;;;;;;;5041815;28;20196;-72
2021/10/04 08:05:32;;;;;;;2.80;1.40;;;;;;;;;;5030087;28;20186;-73
2021/10/04 08:07:57;;;;;;;6.40;1.90;;;;;;;;;;5036278;28;20220;-73
2021/10/04 08:10:23;;;;;;;7.88;1.75;;;;;;;;;;5033334;28;20633;-74
2021/10/04 08:12:48;;;;;;;11.95;1.88;;;;;;;;;;5034200;28;20184;-72
2021/10/04 08:15:14;;;;;;;13.07;1.92;;;;;;;;;;5033489;28;20270;-72
2021/10/04 08:17:39;;;;;;;3.70;1.17;;;;;;;;;;5037720;28;20185;-73
2021/10/04 08:20:08;;;;;;;5.00;1.55;;;;;;;;;;5038006;28;20201;-72
2021/10/04 08:22:35;;;;;;;8.57;1.90;;;;;;;;;;5032200;28;20181;-72
2021/10/04 08:25:00;;;;;;;8.82;2.00;;;;;;;;;;5040314;28;20204;-72
2021/10/04 08:27:25;;;;;;;7.55;1.98;;;;;;;;;;5031821;28;20194;-72
2021/10/04 08:29:51;;;;;;;4.10;1.30;;;;;;;;;;5040386;28;20280;-73
2021/10/04 08:32:16;;;;;;;2.53;1.15;;;;;;;;;;5034116;28;20279;-73
2021/10/04 08:34:42;;;;;;;6.18;1.42;;;;;;;;;;5041778;28;20486;-74
2021/10/04 08:37:07;;;;;;;5.20;1.65;;;;;;;;;;5030783;28;20190;-72
2021/10/04 08:39:32;;;;;;;6.13;1.85;;;;;;;;;;5037328;28;20169;-73
2021/10/04 08:41:58;;;;;;;5.93;1.48;;;;;;;;;;5031078;28;20207;-72
2021/10/04 08:44:24;;;;;;;4.40;1.60;;;;;;;;;;5040074;28;20184;-72
2021/10/04 08:46:49;;;;;;;6.32;1.90;;;;;;;;;;5035695;28;20197;-71
2021/10/04 08:49:17;;;;;;;7.90;1.45;;;;;;;;;;5036234;28;20193;-72
2021/10/04 08:51:45;;;;;;;6.72;1.60;;;;;;;;;;5036392;28;20204;-72
2021/10/04 08:54:11;;;;;;;2.50;1.30;;;;;;;;;;5032613;28;20243;-74
2021/10/04 08:56:37;;;;;;;6.45;1.67;;;;;;;;;;5036768;28;20300;-74
2021/10/04 08:59:03;;;;;;;4.88;1.40;;;;;;;;;;5026759;28;20327;-75
2021/10/04 09:01:28;;;;;;;5.22;1.50;;;;;;;;;;5036469;28;20254;-73
2021/10/04 09:03:57;;;;;;;6.15;1.60;;;;;;;;;;5030635;28;20607;-72
2021/10/04 09:06:43;;;;;;;3.92;1.25;;;;;;;;;;5038699;28;20246;-72
2021/10/04 09:09:11;;;;;;;6.30;1.65;;;;;;;;;;5030724;28;20252;-73
2021/10/04 09:11:41;;;;;;;3.38;1.30;;;;;;;;;;5038308;28;20193;-73
2021/10/04 09:14:31;;;;;;;3.40;1.42;;;;;;;;;;5032565;28;20205;-72
2021/10/04 09:17:00;;;;;;;8.27;1.80;;;;;;;;;;5035869;28;20186;-71
2021/10/04 09:19:28;;;;;;;5.28;1.50;;;;;;;;;;5028856;28;20265;-73
2021/10/04 09:22:04;;;;;;;6.82;1.60;;;;;;;;;;5039302;28;20214;-71
2021/10/04 09:24:30;;;;;;;11.90;1.80;;;;;;;;;;5030036;28;20193;-71
2021/10/04 09:26:55;;;;;;;4.57;1.40;;;;;;;;;;5043599;28;20197;-72
2021/10/04 09:29:21;;;;;;;3.42;1.33;;;;;;;;;;5031909;28;20210;-74
2021/10/04 09:31:47;;;;;;;5.60;1.35;;;;;;;;;;5044681;28;20717;-75
2021/10/04 09:34:13;;;;;;;4.40;0.90;;;;;;;;;;5045116;28;20495;-72
2021/10/04 09:36:43;;;;;;;4.65;1.30;;;;;;;;;;5037416;28;20793;-73
2021/10/04 09:39:36;;;;;;;3.72;1.30;;;;;;;;;;5044508;28;20565;-74
2021/10/04 09:42:09;;;;;;;7.00;1.25;;;;;;;;;;5042774;28;20318;-75
2021/10/04 09:44:50;;;;;;;3.25;1.30;;;;;;;;;;5044652;28;20193;-72
2021/10/04 09:47:18;;;;;;;4.80;1.30;;;;;;;;;;5042286;28;20637;-72
2021/10/04 09:49:52;;;;;;;6.25;1.40;;;;;;;;;;5040625;28;20206;-72
2021/10/04 09:52:19;;;;;;;10.60;1.77;;;;;;;;;;5036276;28;20185;-73
2021/10/04 09:54:46;;;;;;;4.57;0.80;;;;;;;;;;5042878;28;20185;-73
2021/10/04 09:57:21;;;;;;;5.45;1.00;;;;;;;;;;5035946;28;20273;-73
2021/10/04 09:59:48;;;;;;;5.60;1.13;;;;;;;;;;5042165;28;20236;-71
2021/10/04 10:02:17;;;;;;;4.35;0.93;;;;;;;;;;5030684;28;20186;-73
2021/10/04 10:04:46;;;;;;;8.07;1.35;;;;;;;;;;5043959;28;20177;-72
2021/10/04 10:07:11;;;;;;;5.53;1.05;;;;;;;;;;5030790;28;20216;-72
2021/10/04 10:09:41;;;;;;;6.07;0.85;;;;;;;;;;5040330;28;20228;-71
2021/10/04 10:12:08;;;;;;;4.60;1.00;;;;;;;;;;5035699;28;20217;-75
2021/10/04 10:15:01;;;;;;;5.05;0.98;;;;;;;;;;5040117;28;20281;-74
2021/10/04 10:17:30;;;;;;;6.47;0.93;;;;;;;;;;5029965;28;20544;-74
2021/10/04 10:19:58;;;;;;;4.80;0.88;;;;;;;;;;5044984;28;20223;-75
2021/10/04 10:22:28;;;;;;;9.20;1.20;;;;;;;;;;5031312;28;20193;-73
2021/10/04 10:24:56;;;;;;;4.18;0.90;;;;;;;;;;5040899;28;20282;-72
2021/10/04 10:27:38;;;;;;;4.70;0.82;;;;;;;;;;5032104;28;20335;-74
2021/10/04 10:30:23;;;;;;;3.97;0.95;;;;;;;;;;5042158;28;20234;-75
2021/10/04 10:32:48;;;;;;;5.15;0.90;;;;;;;;;;5036561;28;20185;-74
2021/10/04 10:35:14;;;;;;;2.00;0.80;;;;;;;;;;5041718;28;20200;-75
2021/10/04 10:37:50;;;;;;;5.97;1.00;;;;;;;;;;5030857;28;20197;-73
2021/10/04 10:40:17;;;;;;;6.43;0.90;;;;;;;;;;5040522;28;20189;-73
2021/10/04 10:43:09;;;;;;;6.50;1.25;;;;;;;;;;5036110;28;20174;-74
2021/10/04 10:45:43;;;;;;;7.80;1.17;;;;;;;;;;5041653;28;20186;-72
2021/10/04 10:48:12;;;;;;;4.53;0.95;;;;;;;;;;5035323;28;20563;-73
2021/10/04 10:50:43;;;;;;;5.80;1.10;;;;;;;;;;5042194;28;20193;-76
2021/10/04 10:53:21;;;;;;;6.28;1.08;;;;;;;;;;5038567;28;20181;-72
2021/10/04 10:55:59;;;;;;;5.20;0.80;;;;;;;;;;5043118;28;20182;-70
2021/10/04 10:58:28;;;;;;;4.63;1.00;;;;;;;;;;5037963;28;20189;-75
2021/10/04 11:01:05;;;;;;;5.50;0.90;;;;;;;;;;5036558;28;20539;-74
2021/10/04 11:03:31;;;;;;;4.20;0.90;;;;;;;;;;5039302;28;20211;-74
2021/10/04 11:06:06;;;;;;;2.42;0.70;;;;;;;;;;5032994;28;20652;-74
2021/10/04 11:08:34;;;;;;;5.75;0.73;;;;;;;;;;5040611;28;20239;-73
2021/10/04 11:10:59;;;;;;;6.25;0.90;;;;;;;;;;5037230;28;20564;-75
2021/10/04 11:13:35;;;;;;;5.75;1.02;;;;;;;;;;5041726;28;20196;-75
2021/10/04 11:16:23;;;;;;;4.63;1.10;;;;;;;;;;5029650;28;20220;-75
2021/10/04 11:18:48;;;;;;;3.08;0.88;;;;;;;;;;5040967;28;20711;-76
2021/10/04 11:21:17;;;;;;;5.20;0.98;;;;;;;;;;5030687;28;20189;-73
2021/10/04 11:23:45;;;;;;;5.22;1.20;;;;;;;;;;5039879;28;20512;-74
2021/10/04 11:26:18;;;;;;;6.70;0.88;;;;;;;;;;5034341;28;20557;-75
2021/10/04 11:28:46;;;;;;;3.30;0.73;;;;;;;;;;5041533;28;20304;-75
2021/10/04 11:31:16;;;;;;;4.95;1.88;;;;;;;;;;5033116;28;20185;-72
2021/10/04 11:34:02;;;;;;;6.20;0.95;;;;;;;;;;5041204;28;20192;-76
2021/10/04 11:36:34;;;;;;;4.95;0.82;;;;;;;;;;5027350;28;20217;-73
2021/10/04 11:39:11;;;;;;;10.70;1.08;;;;;;;;;;5038706;28;20185;-73
2021/10/04 11:41:41;;;;;;;6.40;0.90;;;;;;;;;;5031233;28;20242;-73
2021/10/04 11:44:09;;;;;;;7.90;0.68;;;;;;;;;;5035296;28;20182;-71
2021/10/04 11:46:42;;;;;;;4.00;0.68;;;;;;;;;;5033428;28;20189;-75
2021/10/04 11:49:15;;;;;;;4.05;0.93;;;;;;;;;;5036812;28;20239;-71
2021/10/04 11:51:47;;;;;;;4.15;0.60;;;;;;;;;;5034710;28;20177;-72
2021/10/04 11:54:43;;;;;;;5.88;1.25;;;;;;;;;;5042771;28;20387;-75
2021/10/04 11:57:19;;;;;;;6.20;1.00;;;;;;;;;;5028133;28;20216;-72
2021/10/04 11:59:56;;;;;;;2.50;0.70;;;;;;;;;;5035998;28;20641;-72
2021/10/04 12:02:27;;;;;;;5.22;1.15;;;;;;;;;;5032002;28;20177;-72
2021/10/04 12:05:18;;;;;;;6.75;1.00;;;;;;;;;;5038536;28;20189;-71
2021/10/04 12:08:00;;;;;;;6.03;0.85;;;;;;;;;;5035875;28;20223;-75
2021/10/04 12:10:43;;;;;;;3.40;0.80;;;;;;;;;;5035442;28;20219;-72
2021/10/04 12:13:11;;;;;;;5.47;1.17;;;;;;;;;;5027361;28;20547;-74
2021/10/04 12:15:36;;;;;;;4.82;0.90;;;;;;;;;;5037521;28;20223;-72
2021/10/04 12:18:02;;;;;;;4.70;0.90;;;;;;;;;;5025991;28;20219;-73
2021/10/04 12:20:27;;;;;;;4.63;0.90;;;;;;;;;;5037488;28;20186;-73
2021/10/04 12:22:53;;;;;;;4.35;1.00;;;;;;;;;;5032257;28;20643;-72
2021/10/04 12:25:30;;;;;;;6.25;0.95;;;;;;;;;;5039042;28;20190;-74
2021/10/04 12:28:04;;;;;;;4.30;1.00;;;;;;;;;;5029182;28;20399;-74
2021/10/04 12:30:45;;;;;;;5.15;0.85;;;;;;;;;;5037293;28;20200;-74
2021/10/04 12:33:10;;;;;;;3.95;0.70;;;;;;;;;;5032110;28;20201;-76
2021/10/04 12:35:36;;;;;;;4.97;1.08;;;;;;;;;;5039247;28;20185;-73
2021/10/04 12:38:03;;;;;;;5.43;1.00;;;;;;;;;;5032504;28;21248;-74
2021/10/04 12:40:47;;;;;;;5.72;1.13;;;;;;;;;;5030323;28;20261;-72
2021/10/04 12:43:22;;;;;;;3.63;0.90;;;;;;;;;;5038447;28;20200;-73
2021/10/04 12:45:55;;;;;;;4.28;0.75;;;;;;;;;;5030863;28;20216;-75
2021/10/04 12:48:22;;;;;;;5.90;0.90;;;;;;;;;;5036910;28;20197;-74
2021/10/04 12:50:49;;;;;;;6.75;0.75;;;;;;;;;;5033770;28;20526;-75
2021/10/04 12:53:23;;;;;;;4.35;0.80;;;;;;;;;;5037010;28;20197;-73
2021/10/04 12:56:09;;;;;;;3.83;0.75;;;;;;;;;;5028728;28;20193;-73
2021/10/04 12:58:36;;;;;;;5.28;1.02;;;;;;;;;;5058620;28;20201;-74
2021/10/04 13:01:13;;;;;;;3.55;0.75;;;;;;;;;;5032863;28;20608;-75
2021/10/04 13:04:07;;;;;;;3.05;0.50;;;;;;;;;;5046242;28;20189;-74
2021/10/04 13:06:39;;;;;;;4.00;1.00;;;;;;;;;;5034021;28;20205;-75
2021/10/04 13:09:06;;;;;;;5.43;0.70;;;;;;;;;;5040910;28;20307;-73
2021/10/04 13:11:33;;;;;;;5.22;0.60;;;;;;;;;;5031898;28;20196;-74
2021/10/04 13:14:01;;;;;;;4.90;0.85;;;;;;;;;;5038109;28;20618;-73
2021/10/04 13:16:26;;;;;;;3.17;1.13;;;;;;;;;;5029759;28;20230;-76
2021/10/04 13:18:52;;;;;;;5.03;0.63;;;;;;;;;;5036151;28;20200;-73
2021/10/04 13:21:18;;;;;;;6.93;0.90;;;;;;;;;;5035612;28;20197;-73
2021/10/04 13:23:43;;;;;;;6.32;0.68;;;;;;;;;;5043736;28;20193;-73
2021/10/04 13:26:12;;;;;;;7.75;0.80;;;;;;;;;;5036279;28;20244;-75
2021/10/04 13:28:38;;;;;;;2.42;0.77;;;;;;;;;;5040991;28;20216;-75
2021/10/04 13:31:05;;;;;;;4.80;0.93;;;;;;;;;;5042224;28;20189;-74
2021/10/04 13:33:31;;;;;;;8.75;0.98;;;;;;;;;;5033650;28;20213;-77
2021/10/04 13:35:56;;;;;;;5.18;0.85;;;;;;;;;;5043843;28;20609;-74
2021/10/04 13:38:22;;;;;;;4.43;0.80;;;;;;;;;;5033948;28;20182;-73
2021/10/04 13:40:47;;;;;;;3.33;0.80;;;;;;;;;;5042768;28;20215;-74
2021/10/04 13:43:13;;;;;;;3.53;0.70;;;;;;;;;;5035030;28;20190;-74
2021/10/04 13:45:38;;;;;;;5.72;0.63;;;;;;;;;;5040001;28;20186;-75
2021/10/04 13:48:04;;;;;;;6.72;1.10;;;;;;;;;;5030827;28;20676;-72
2021/10/04 13:50:29;;;;;;;2.55;0.80;;;;;;;;;;5039699;28;21054;-74
2021/10/04 13:52:54;;;;;;;4.35;0.90;;;;;;;;;;5035618;28;20201;-77
2021/10/04 13:55:20;;;;;;;3.53;0.88;;;;;;;;;;5042805;28;20264;-74
2021/10/04 13:57:45;;;;;;;3.53;0.63;;;;;;;;;;5028490;28;20205;-77
2021/10/04 14:00:12;;;;;;;3.80;0.63;;;;;;;;;;5044008;28;20197;-76
2021/10/04 14:02:38;;;;;;;5.18;1.00;;;;;;;;;;5042375;28;20212;-75
2021/10/04 14:05:05;;;;;;;3.47;0.50;;;;;;;;;;5031418;28;20182;-77
2021/10/04 14:07:32;;;;;;;3.40;0.70;;;;;;;;;;5041501;28;20195;-76
2021/10/04 14:09:58;;;;;;;6.65;0.90;;;;;;;;;;5033910;28;20237;-75
2021/10/04 14:12:24;;;;;;;4.78;0.80;;;;;;;;;;5040197;28;20291;-77
2021/10/04 14:14:49;;;;;;;2.95;0.70;;;;;;;;;;5037385;28;20197;-76
2021/10/04 14:17:14;;;;;;;6.53;0.90;;;;;;;;;;5040438;28;20565;-75
2021/10/04 14:19:40;;;;;;;6.15;0.80;;;;;;;;;;5037735;28;20178;-75
2021/10/04 14:22:05;;;;;;;5.75;0.90;;;;;;;;;;5039703;28;20644;-75
2021/10/04 14:24:31;;;;;;;5.47;1.10;;;;;;;;;;5034800;28;20208;-72
2021/10/04 14:26:56;;;;;;;5.93;0.85;;;;;;;;;;5041639;28;20189;-75
2021/10/04 14:29:21;;;;;;;4.40;1.10;;;;;;;;;;5027957;28;20220;-76
2021/10/04 14:31:47;;;;;;;3.20;0.65;;;;;;;;;;5042541;28;20200;-75
2021/10/04 14:34:12;;;;;;;3.72;0.70;;;;;;;;;;5039268;28;20327;-76
2021/10/04 14:36:38;;;;;;;8.27;1.00;;;;;;;;;;5035704;28;20221;-74
2021/10/04 14:39:03;;;;;;;5.60;0.57;;;;;;;;;;5039103;28;20231;-72
2021/10/04 14:41:29;;;;;;;3.58;0.60;;;;;;;;;;5033930;28;20276;-75
2021/10/04 14:43:54;;;;;;;7.22;0.57;;;;;;;;;;5039107;28;20200;-73
2021/10/04 14:46:20;;;;;;;4.55;1.00;;;;;;;;;;5033919;28;20204;-72